createdAt,value
2023-02-18T00:00:23.620Z,18.25
2023-02-18T00:02:52.560Z,16.35
2023-02-18T00:05:19.585Z,18.42
2023-02-18T00:07:46.073Z,19.52
2023-02-18T00:10:14.901Z,20.00
2023-02-18T00:12:41.928Z,19.88
2023-02-18T00:15:09.596Z,18.25
2023-02-18T00:17:36.268Z,18.63
2023-02-18T00:20:02.808Z,20.65
2023-02-18T00:22:29.249Z,19.17
2023-02-18T00:24:55.649Z,17.88
2023-02-18T00:27:22.068Z,18.77
2023-02-18T00:29:48.448Z,19.95
2023-02-18T00:32:14.953Z,17.80
2023-02-18T00:34:41.388Z,18.15
2023-02-18T00:37:07.799Z,16.98
2023-02-18T00:39:34.223Z,20.38
2023-02-18T00:42:00.641Z,19.17
2023-02-18T00:44:27.155Z,19.48
2023-02-18T00:46:53.609Z,19.92
2023-02-18T00:49:20.024Z,19.40
2023-02-18T00:51:46.461Z,20.35
2023-02-18T00:54:12.939Z,18.65
2023-02-18T00:56:39.366Z,17.83
2023-02-18T00:59:05.829Z,20.30
2023-02-18T01:01:32.606Z,20.33
2023-02-18T01:03:59.160Z,19.13
2023-02-18T01:06:25.727Z,18.00
2023-02-18T01:08:52.123Z,18.13
2023-02-18T01:11:18.653Z,19.25
2023-02-18T01:13:45.118Z,17.48
2023-02-18T01:16:11.834Z,20.02
2023-02-18T01:18:39.286Z,18.33
2023-02-18T01:21:08.605Z,18.02
2023-02-18T01:23:36.149Z,18.52
2023-02-18T01:26:02.688Z,19.13
2023-02-18T01:28:29.198Z,20.63
2023-02-18T01:30:55.747Z,20.88
2023-02-18T01:33:22.588Z,18.15
2023-02-18T01:35:49.727Z,21.30
2023-02-18T01:38:16.241Z,19.77
2023-02-18T01:40:51.448Z,20.67
2023-02-18T01:43:20.242Z,20.65
2023-02-18T01:46:10.351Z,20.35
2023-02-18T01:48:45.582Z,21.30
2023-02-18T01:51:23.636Z,19.23
2023-02-18T01:54:01.764Z,21.08
2023-02-18T01:56:35.825Z,21.83
2023-02-18T01:59:07.892Z,19.17
2023-02-18T02:01:35.261Z,19.50
2023-02-18T02:04:01.936Z,21.85
2023-02-18T02:06:28.486Z,20.77
2023-02-18T02:08:59.476Z,20.17
2023-02-18T02:12:10.446Z,22.15
2023-02-18T02:14:54.990Z,20.02
2023-02-18T02:17:36.651Z,19.88
2023-02-18T02:23:28.296Z,17.48
2023-02-18T02:26:22.457Z,20.10
2023-02-18T02:29:16.705Z,17.10
2023-02-18T02:32:01.501Z,21.27
2023-02-18T02:35:06.929Z,19.50
2023-02-18T02:38:12.413Z,19.10
2023-02-18T02:40:50.949Z,20.27
2023-02-18T02:43:49.401Z,19.20
2023-02-18T02:46:26.569Z,19.05
2023-02-18T02:49:22.810Z,20.08
2023-02-18T02:52:11.908Z,18.02
2023-02-18T02:54:38.401Z,18.30
2023-02-18T02:57:25.042Z,19.08
2023-02-18T02:59:57.034Z,19.67
2023-02-18T03:03:00.825Z,20.30
2023-02-18T03:05:39.003Z,18.63
2023-02-18T03:08:39.182Z,22.10
2023-02-18T03:11:14.296Z,20.98
2023-02-18T03:14:05.306Z,19.95
2023-02-18T03:16:42.245Z,20.35
2023-02-18T03:19:22.922Z,20.50
2023-02-18T03:21:58.639Z,19.40
2023-02-18T03:24:42.867Z,20.42
2023-02-18T03:27:29.328Z,19.27
2023-02-18T03:30:05.097Z,19.85
2023-02-18T03:32:34.230Z,21.02
2023-02-18T03:35:06.096Z,20.70
2023-02-18T03:37:37.817Z,19.85
2023-02-18T03:40:05.799Z,19.77
2023-02-18T03:42:32.448Z,20.90
2023-02-18T03:44:59.212Z,20.67
2023-02-18T03:47:25.882Z,22.20
2023-02-18T03:49:52.268Z,19.55
2023-02-18T03:52:19.647Z,20.15
2023-02-18T03:54:46.107Z,18.58
2023-02-18T03:57:12.539Z,19.25
2023-02-18T03:59:38.947Z,18.67
2023-02-18T04:02:05.370Z,17.88
2023-02-18T04:04:32.753Z,18.25
2023-02-18T04:06:59.299Z,18.08
2023-02-18T04:09:26.000Z,17.25
2023-02-18T04:11:52.458Z,17.85
2023-02-18T04:14:18.886Z,17.88
2023-02-18T04:16:45.397Z,17.70
2023-02-18T04:19:11.896Z,15.93
2023-02-18T04:21:38.364Z,14.45
2023-02-18T04:24:04.993Z,17.67
2023-02-18T04:26:31.425Z,15.82
2023-02-18T04:28:57.978Z,16.90
2023-02-18T04:31:24.560Z,15.70
2023-02-18T04:33:51.576Z,16.98
2023-02-18T04:36:18.002Z,15.90
2023-02-18T04:38:44.464Z,18.70
2023-02-18T04:41:12.690Z,18.27
2023-02-18T04:43:39.273Z,18.45
2023-02-18T04:46:05.866Z,18.00
2023-02-18T04:48:32.530Z,18.05
2023-02-18T04:50:58.940Z,17.05
2023-02-18T04:53:25.433Z,18.55
2023-02-18T04:55:52.912Z,18.73
2023-02-18T04:58:20.073Z,17.88
2023-02-18T05:00:46.778Z,19.35
2023-02-18T05:03:14.087Z,20.77
2023-02-18T05:05:41.802Z,19.67
2023-02-18T05:08:08.780Z,20.58
2023-02-18T05:10:35.293Z,19.35
2023-02-18T05:13:01.735Z,18.83
2023-02-18T05:15:28.186Z,21.85
2023-02-18T05:17:54.629Z,21.70
2023-02-18T05:20:21.058Z,19.33
2023-02-18T05:22:47.484Z,21.23
2023-02-18T05:25:13.901Z,22.90
2023-02-18T05:27:40.327Z,20.80
2023-02-18T05:30:07.832Z,22.08
2023-02-18T05:32:34.392Z,20.05
2023-02-18T05:35:00.793Z,19.73
2023-02-18T05:37:27.192Z,18.20
2023-02-18T05:39:53.626Z,18.55
2023-02-18T05:42:20.674Z,19.00
2023-02-18T05:44:47.211Z,16.77
2023-02-18T05:47:13.681Z,16.48
2023-02-18T05:49:41.892Z,16.98
2023-02-18T05:52:09.884Z,18.95
2023-02-18T05:54:37.686Z,16.42
2023-02-18T05:57:04.875Z,16.25
2023-02-18T05:59:31.343Z,15.73
2023-02-18T06:01:57.935Z,15.15
2023-02-18T06:04:24.837Z,15.73
2023-02-18T06:06:51.560Z,15.65
2023-02-18T06:09:18.006Z,14.75
2023-02-18T06:11:44.426Z,15.45
2023-02-18T06:14:10.876Z,13.73
2023-02-18T06:16:37.691Z,14.60
2023-02-18T06:19:04.211Z,13.35
2023-02-18T06:21:30.809Z,12.32
2023-02-18T06:23:57.288Z,13.57
2023-02-18T06:26:24.089Z,12.68
2023-02-18T06:28:50.538Z,12.90
2023-02-18T06:31:17.036Z,12.65
2023-02-18T06:33:43.526Z,13.07
2023-02-18T06:36:12.371Z,15.15
2023-02-18T06:38:43.869Z,15.15
2023-02-18T06:41:11.498Z,16.98
2023-02-18T06:43:38.485Z,14.80
2023-02-18T06:46:05.602Z,15.23
2023-02-18T06:48:32.791Z,15.30
2023-02-18T06:51:25.098Z,16.65
2023-02-18T06:56:32.373Z,14.57
2023-02-18T06:58:58.836Z,17.08
2023-02-18T07:01:25.244Z,16.95
2023-02-18T07:03:51.697Z,14.68
2023-02-18T07:06:18.183Z,13.50
2023-02-18T07:08:44.671Z,14.00
2023-02-18T07:11:11.159Z,14.10
2023-02-18T07:13:37.569Z,15.65
2023-02-18T07:16:04.349Z,14.88
2023-02-18T07:18:30.798Z,15.75
2023-02-18T07:20:57.208Z,14.52
2023-02-18T07:23:23.645Z,14.52
2023-02-18T07:25:50.056Z,15.27
2023-02-18T07:28:16.503Z,15.93
2023-02-18T07:30:43.039Z,17.85
2023-02-18T07:33:10.995Z,18.80
2023-02-18T07:35:37.493Z,19.27
2023-02-18T07:38:04.050Z,20.38
2023-02-18T07:40:30.503Z,18.27
2023-02-18T07:42:56.920Z,21.23
2023-02-18T07:45:23.420Z,21.02
2023-02-18T07:47:49.827Z,22.13
2023-02-18T07:50:16.335Z,22.98
2023-02-18T07:52:42.777Z,22.77
2023-02-18T07:55:09.257Z,24.02
2023-02-18T07:57:55.852Z,25.92
2023-02-18T08:00:22.391Z,24.95
2023-02-18T08:02:48.816Z,32.67
2023-02-18T08:05:15.256Z,29.40
2023-02-18T08:07:41.810Z,26.27
2023-02-18T08:10:08.466Z,26.63
2023-02-18T08:12:45.262Z,29.02
2023-02-18T08:15:12.021Z,28.58
2023-02-18T08:17:38.420Z,27.60
2023-02-18T08:20:05.971Z,33.70
2023-02-18T08:22:32.435Z,30.30
2023-02-18T08:24:58.949Z,31.45
2023-02-18T08:27:25.458Z,26.63
2023-02-18T08:29:52.212Z,26.27
2023-02-18T08:32:18.661Z,27.65
2023-02-18T08:34:49.259Z,30.38
2023-02-18T08:37:18.670Z,30.43
2023-02-18T08:39:45.117Z,28.33
2023-02-18T08:42:11.543Z,28.63
2023-02-18T08:44:38.155Z,28.20
2023-02-18T08:47:04.684Z,28.75
2023-02-18T08:49:53.267Z,25.63
2023-02-18T08:52:20.170Z,29.17
2023-02-18T08:54:46.897Z,29.55
2023-02-18T08:57:13.754Z,29.98
2023-02-18T08:59:40.299Z,30.38
2023-02-18T09:02:06.979Z,27.00
2023-02-18T09:04:33.394Z,27.10
2023-02-18T09:06:59.822Z,29.17
2023-02-18T09:09:26.246Z,26.00
2023-02-18T09:11:52.639Z,28.00
2023-02-18T09:14:19.073Z,25.38
2023-02-18T09:16:45.561Z,25.70
2023-02-18T09:19:12.000Z,26.85
2023-02-18T09:21:38.910Z,21.48
2023-02-18T09:24:05.629Z,22.42
2023-02-18T09:26:33.414Z,22.42
2023-02-18T09:28:59.819Z,21.98
2023-02-18T09:31:27.689Z,23.60
2023-02-18T09:34:02.136Z,21.35
2023-02-18T09:36:29.217Z,18.73
2023-02-18T09:38:55.875Z,19.35
2023-02-18T09:41:32.172Z,20.48
2023-02-18T09:44:07.379Z,19.65
2023-02-18T09:46:40.909Z,17.30
2023-02-18T09:49:16.003Z,17.83
2023-02-18T09:51:43.526Z,17.23
2023-02-18T09:54:14.394Z,17.30
2023-02-18T09:56:42.750Z,18.85
2023-02-18T09:59:16.053Z,17.23
2023-02-18T10:01:50.831Z,17.70
2023-02-18T10:04:23.741Z,17.58
2023-02-18T10:06:57.330Z,20.17
2023-02-18T10:09:34.750Z,17.35
2023-02-18T10:12:19.227Z,16.70
2023-02-18T10:15:03.913Z,16.92
2023-02-18T10:17:33.301Z,16.50
2023-02-18T10:20:01.507Z,18.23
2023-02-18T10:22:30.458Z,20.02
2023-02-18T10:24:59.586Z,20.17
2023-02-18T10:27:29.003Z,19.92
2023-02-18T10:30:24.233Z,17.60
2023-02-18T10:32:57.736Z,19.67
2023-02-18T10:35:34.206Z,16.95
2023-02-18T10:38:24.519Z,18.02
2023-02-18T10:41:02.351Z,18.50
2023-02-18T10:43:34.745Z,17.48
2023-02-18T10:46:13.906Z,17.30
2023-02-18T10:49:09.637Z,17.92
2023-02-18T10:51:40.444Z,14.95
2023-02-18T10:54:07.177Z,19.35
2023-02-18T10:56:40.854Z,16.50
2023-02-18T10:59:25.407Z,17.45
2023-02-18T11:01:58.479Z,15.55
2023-02-18T11:04:46.028Z,14.93
2023-02-18T11:07:13.826Z,14.80
2023-02-18T11:09:53.574Z,16.45
2023-02-18T11:12:30.594Z,15.80
2023-02-18T11:15:05.425Z,15.73
2023-02-18T11:17:34.113Z,17.02
2023-02-18T11:20:04.096Z,15.40
2023-02-18T11:22:41.370Z,17.63
2023-02-18T11:25:26.102Z,15.52
2023-02-18T11:27:56.793Z,16.10
2023-02-18T11:30:39.897Z,16.95
2023-02-18T11:33:16.118Z,16.75
2023-02-18T11:35:50.440Z,15.65
2023-02-18T11:38:41.472Z,14.25
2023-02-18T11:41:12.036Z,16.67
2023-02-18T11:43:42.788Z,14.15
2023-02-18T11:46:11.112Z,15.35
2023-02-18T11:48:37.761Z,16.35
2023-02-18T11:51:07.172Z,15.55
2023-02-18T11:53:36.884Z,15.07
2023-02-18T11:56:16.493Z,15.80
2023-02-18T11:58:48.248Z,13.95
2023-02-18T12:01:20.660Z,13.75
2023-02-18T12:03:51.106Z,14.45
2023-02-18T12:06:30.995Z,12.83
2023-02-18T12:09:17.676Z,13.40
2023-02-18T12:11:49.691Z,14.18
2023-02-18T12:14:19.438Z,13.38
2023-02-18T12:17:02.351Z,13.88
2023-02-18T12:19:34.750Z,12.55
2023-02-18T12:22:20.682Z,15.75
2023-02-18T12:25:01.984Z,13.27
2023-02-18T12:28:10.914Z,13.48
2023-02-18T12:31:06.174Z,13.77
2023-02-18T12:34:16.490Z,13.40
2023-02-18T12:36:55.430Z,13.73
2023-02-18T12:39:57.063Z,14.27
2023-02-18T12:52:37.441Z,13.43
2023-02-18T12:55:27.288Z,15.10
2023-02-18T12:58:35.667Z,14.90
2023-02-18T13:01:15.391Z,14.02
2023-02-18T13:04:06.851Z,14.18
2023-02-18T13:09:51.154Z,11.40
2023-02-18T13:12:36.697Z,11.18
2023-02-18T13:15:34.242Z,12.60
2023-02-18T13:18:24.338Z,12.93
2023-02-18T13:21:05.740Z,10.95
2023-02-18T13:23:37.706Z,12.50
2023-02-18T13:26:30.365Z,12.55
2023-02-18T13:32:27.102Z,12.82
2023-02-18T13:35:33.550Z,12.20
2023-02-18T13:38:47.269Z,12.30
2023-02-18T13:41:14.531Z,12.65
2023-02-18T13:46:25.565Z,11.97
2023-02-18T13:49:17.685Z,11.82
2023-02-18T13:51:50.076Z,14.45
2023-02-18T13:54:26.130Z,12.52
2023-02-18T13:57:01.129Z,20.38
2023-02-18T13:59:41.820Z,16.35
2023-02-18T14:02:21.267Z,11.18
2023-02-18T14:04:55.562Z,13.82
2023-02-18T14:07:40.369Z,9.45
2023-02-18T14:10:12.804Z,10.20
2023-02-18T14:12:41.104Z,10.38
2023-02-18T14:15:19.848Z,9.70
2023-02-18T14:18:14.129Z,10.88
2023-02-18T14:20:45.740Z,9.38
2023-02-18T14:23:18.575Z,11.23
2023-02-18T14:25:59.991Z,10.35
2023-02-18T14:28:38.548Z,10.05
2023-02-18T14:31:32.728Z,11.73
2023-02-18T14:33:59.211Z,10.25
2023-02-18T14:36:34.029Z,10.80
2023-02-18T14:39:56.163Z,10.98
2023-02-18T14:42:50.647Z,10.60
2023-02-18T14:45:32.845Z,11.45
2023-02-18T14:48:02.303Z,11.30
2023-02-18T14:50:35.150Z,11.32
2023-02-18T14:53:07.843Z,10.55
2023-02-18T14:55:43.440Z,11.18
2023-02-18T14:58:28.099Z,11.27
2023-02-18T15:00:54.641Z,10.00
2023-02-18T15:03:22.359Z,11.05
2023-02-18T15:05:51.817Z,10.82
2023-02-18T15:08:26.168Z,10.77
2023-02-18T15:11:01.749Z,11.68
2023-02-18T15:13:34.200Z,10.93
2023-02-18T15:16:05.684Z,10.43
2023-02-18T15:18:38.300Z,12.93
2023-02-18T15:21:07.498Z,10.70
2023-02-18T15:23:39.730Z,12.07
2023-02-18T15:26:10.586Z,11.02
2023-02-18T15:28:43.008Z,10.82
2023-02-18T15:31:15.597Z,11.73
2023-02-18T15:33:47.346Z,11.88
2023-02-18T15:36:15.261Z,11.25
2023-02-18T15:38:42.936Z,10.15
2023-02-18T15:41:13.661Z,8.38
2023-02-18T15:43:51.604Z,11.38
2023-02-18T15:46:18.161Z,8.02
2023-02-18T15:48:49.004Z,5.93
2023-02-18T15:51:22.108Z,5.10
2023-02-18T15:53:53.641Z,5.30
2023-02-18T15:59:16.188Z,5.03
2023-02-18T16:01:42.669Z,5.55
2023-02-18T16:04:13.244Z,4.95
2023-02-18T16:06:46.464Z,5.20
2023-02-18T16:09:19.066Z,5.60
2023-02-18T16:11:49.989Z,4.57
2023-02-18T16:14:28.527Z,6.22
2023-02-18T16:17:15.430Z,6.10
2023-02-18T16:20:05.652Z,5.65
2023-02-18T16:22:33.525Z,6.17
2023-02-18T16:25:07.421Z,5.25
2023-02-18T16:27:37.390Z,8.50
2023-02-18T16:30:31.420Z,5.68
2023-02-18T16:32:58.999Z,5.90
2023-02-18T16:35:30.672Z,5.95
2023-02-18T16:37:59.675Z,5.85
2023-02-18T16:40:40.563Z,6.97
2023-02-18T16:43:10.048Z,4.88
2023-02-18T16:45:49.964Z,5.80
2023-02-18T16:48:28.228Z,5.45
2023-02-18T16:50:54.815Z,5.75
2023-02-18T16:53:21.868Z,6.10
2023-02-18T16:55:50.844Z,6.10
2023-02-18T16:58:17.841Z,6.38
2023-02-18T17:00:46.169Z,6.22
2023-02-18T17:03:13.502Z,6.10
2023-02-18T17:05:41.065Z,5.80
2023-02-18T17:08:26.933Z,6.28
2023-02-18T17:10:56.157Z,7.13
2023-02-18T17:13:25.523Z,6.25
2023-02-18T17:15:54.759Z,5.07
2023-02-18T17:18:21.456Z,5.93
2023-02-18T17:20:48.918Z,6.65
2023-02-18T17:23:16.397Z,6.30
2023-02-18T17:25:43.260Z,5.97
2023-02-18T17:28:09.673Z,6.63
2023-02-18T17:30:39.091Z,6.07
2023-02-18T17:33:06.704Z,6.03
2023-02-18T17:35:33.400Z,5.22
2023-02-18T17:38:00.002Z,6.07
2023-02-18T17:40:28.207Z,6.35
2023-02-18T17:42:55.994Z,6.35
2023-02-18T17:45:32.105Z,5.53
2023-02-18T17:48:00.415Z,6.78
2023-02-18T17:50:28.445Z,8.35
2023-02-18T17:52:57.783Z,5.45
2023-02-18T17:55:25.507Z,6.07
2023-02-18T17:57:53.012Z,5.25
2023-02-18T18:00:34.675Z,7.15
2023-02-18T18:03:01.439Z,7.82
2023-02-18T18:05:36.474Z,7.78
2023-02-18T18:08:04.644Z,7.85
2023-02-18T18:10:34.475Z,7.82
2023-02-18T18:13:04.485Z,7.20
2023-02-18T18:15:34.168Z,10.35
2023-02-18T18:18:00.769Z,8.55
2023-02-18T18:20:30.459Z,8.02
2023-02-18T18:22:58.675Z,7.40
2023-02-18T18:25:29.230Z,8.35
2023-02-18T18:27:56.413Z,8.18
2023-02-18T18:30:28.612Z,6.70
2023-02-18T18:32:55.701Z,7.70
2023-02-18T18:35:26.605Z,8.95
2023-02-18T18:37:53.893Z,7.97
2023-02-18T18:40:22.569Z,8.77
2023-02-18T18:42:49.208Z,8.00
2023-02-18T18:45:19.825Z,8.23
2023-02-18T18:47:46.959Z,9.45
2023-02-18T18:50:13.729Z,8.25
2023-02-18T18:52:43.322Z,8.45
2023-02-18T18:55:33.972Z,9.15
2023-02-18T18:58:01.003Z,8.27
2023-02-18T19:00:34.213Z,8.35
2023-02-18T19:03:03.194Z,9.32
2023-02-18T19:05:37.385Z,9.98
2023-02-18T19:08:05.637Z,9.77
2023-02-18T19:10:35.737Z,10.10
2023-02-18T19:13:06.660Z,9.75
2023-02-18T19:15:33.306Z,9.60
2023-02-18T19:17:59.800Z,9.27
2023-02-18T19:20:29.834Z,13.10
2023-02-18T19:22:56.321Z,12.55
2023-02-18T19:25:23.130Z,12.95
2023-02-18T19:27:52.449Z,12.23
2023-02-18T19:30:28.200Z,10.63
2023-02-18T19:32:57.713Z,10.88
2023-02-18T19:35:25.965Z,11.50
2023-02-18T19:37:52.875Z,10.27
2023-02-18T19:40:24.694Z,9.35
2023-02-18T19:42:51.834Z,10.63
2023-02-18T19:45:19.538Z,12.60
2023-02-18T19:47:46.407Z,10.50
2023-02-18T19:50:15.819Z,9.32
2023-02-18T19:52:42.303Z,8.80
2023-02-18T19:55:09.939Z,12.02
2023-02-18T19:57:36.447Z,9.00
2023-02-18T20:00:05.754Z,9.23
2023-02-18T20:02:32.730Z,8.68
2023-02-18T20:05:01.581Z,9.77
2023-02-18T20:07:29.178Z,8.30
2023-02-18T20:09:55.702Z,8.63
2023-02-18T20:12:22.697Z,9.85
2023-02-18T20:14:50.584Z,7.63
2023-02-18T20:17:17.767Z,8.73
2023-02-18T20:19:44.291Z,9.82
2023-02-18T20:22:10.736Z,8.60
2023-02-18T20:24:39.490Z,9.25
2023-02-18T20:27:07.166Z,10.75
2023-02-18T20:29:34.688Z,9.25
2023-02-18T20:32:01.387Z,9.95
2023-02-18T20:34:28.445Z,9.25
2023-02-18T20:36:54.997Z,9.02
2023-02-18T20:39:22.749Z,11.38
2023-02-18T20:41:50.283Z,11.75
2023-02-18T20:44:18.355Z,9.70
2023-02-18T20:46:45.352Z,9.82
2023-02-18T20:49:14.161Z,10.48
2023-02-18T20:51:41.267Z,10.07
2023-02-18T20:54:09.970Z,9.30
2023-02-18T20:56:37.810Z,11.43
2023-02-18T20:59:05.065Z,10.43
2023-02-18T21:01:32.224Z,10.15
2023-02-18T21:03:58.834Z,11.00
2023-02-18T21:06:27.271Z,10.90
2023-02-18T21:08:54.232Z,11.82
2023-02-18T21:11:23.757Z,12.50
2023-02-18T21:13:52.087Z,12.60
2023-02-18T21:16:21.201Z,13.50
2023-02-18T21:18:47.872Z,14.82
2023-02-18T21:21:14.993Z,16.33
2023-02-18T21:23:41.677Z,17.45
2023-02-18T21:26:09.527Z,19.27
2023-02-18T21:28:36.045Z,20.08
2023-02-18T21:31:03.117Z,16.48
2023-02-18T21:33:29.908Z,11.75
2023-02-18T21:35:56.612Z,12.00
2023-02-18T21:38:23.026Z,12.82
2023-02-18T21:40:49.459Z,11.80
2023-02-18T21:43:15.863Z,11.25
2023-02-18T21:45:42.308Z,12.52
2023-02-18T21:48:27.548Z,11.98
2023-02-18T21:50:54.014Z,20.30
2023-02-18T21:53:22.754Z,38.28
2023-02-18T21:56:02.192Z,21.83
2023-02-18T21:58:30.115Z,16.83
2023-02-18T22:00:58.159Z,13.55
2023-02-18T22:03:24.714Z,11.63
2023-02-18T22:05:51.142Z,14.80
2023-02-18T22:08:17.536Z,14.95
2023-02-18T22:10:43.970Z,13.50
2023-02-18T22:13:10.370Z,14.00
2023-02-18T22:15:36.802Z,12.80
2023-02-18T22:18:03.229Z,14.70
2023-02-18T22:20:29.663Z,13.63
2023-02-18T22:22:56.034Z,14.10
2023-02-18T22:25:23.666Z,12.32
2023-02-18T22:27:50.066Z,12.25
2023-02-18T22:30:18.732Z,15.25
2023-02-18T22:32:45.337Z,12.98
2023-02-18T22:35:11.802Z,16.48
2023-02-18T22:37:38.254Z,17.52
2023-02-18T22:40:05.148Z,19.25
2023-02-18T22:42:31.563Z,18.35
2023-02-18T22:45:02.255Z,17.58
2023-02-18T22:47:28.941Z,19.25
2023-02-18T22:49:55.355Z,17.55
2023-02-18T22:52:21.743Z,19.02
2023-02-18T22:54:48.126Z,15.80
2023-02-18T22:57:14.595Z,20.85
2023-02-18T22:59:41.491Z,17.75
2023-02-18T23:02:08.105Z,21.02
2023-02-18T23:04:34.496Z,18.67
2023-02-18T23:07:00.950Z,19.77
2023-02-18T23:09:27.451Z,19.30
2023-02-18T23:11:56.546Z,19.10
2023-02-18T23:14:23.630Z,18.90
2023-02-18T23:17:14.200Z,17.35
2023-02-18T23:19:49.578Z,17.95
2023-02-18T23:22:19.468Z,17.33
2023-02-18T23:24:46.893Z,18.70
2023-02-18T23:27:15.291Z,18.08
2023-02-18T23:29:42.161Z,18.40
2023-02-18T23:32:09.363Z,20.27
2023-02-18T23:34:36.201Z,17.15
2023-02-18T23:37:02.588Z,20.52
2023-02-18T23:39:29.560Z,19.83
2023-02-18T23:41:56.370Z,18.85
2023-02-18T23:44:23.997Z,19.25
2023-02-18T23:46:51.018Z,16.98
2023-02-18T23:49:20.111Z,19.80
2023-02-18T23:51:46.685Z,18.40
2023-02-18T23:54:13.122Z,18.52
2023-02-18T23:56:40.022Z,18.02
2023-02-18T23:59:06.536Z,18.58
